Time;durP1;ratioP1;P1;durP2;ratioP2;P2;SDS_P1;SDS_P2;PMS_P1;PMS_P2;Temp;Humidity;BMP_temperature;BMP_pressure;BME280_temperature;BME280_humidity;BME280_pressure;Samples;Min_cycle;Max_cycle;Signal;HPM_P1;HPM_P2
2022/02/17 00:00:06;;;;;;;63.93;58.23;;;;;;;11.60;100.00;100002.06;1883009;75;26198;-75
2022/02/17 00:02:37;;;;;;;67.53;61.00;;;;;;;11.53;100.00;99995.55;1882884;75;26218;-73
2022/02/17 00:05:10;;;;;;;66.57;60.87;;;;;;;11.51;100.00;99995.02;1882842;76;26232;-74
2022/02/17 00:07:40;;;;;;;66.93;61.03;;;;;;;11.46;100.00;100013.80;1882987;76;26734;-74
2022/02/17 00:10:11;;;;;;;69.10;62.30;;;;;;;11.60;100.00;100017.36;1882893;76;26804;-74
2022/02/17 00:12:43;;;;;;;64.43;58.40;;;;;;;11.62;100.00;100024.27;1882785;76;26198;-74
2022/02/17 00:15:14;;;;;;;71.23;64.47;;;;;;;11.67;100.00;100021.38;1882825;76;26687;-72
2022/02/17 00:17:45;;;;;;;68.70;62.40;;;;;;;11.64;100.00;100036.45;1882890;76;26685;-74
2022/02/17 00:20:15;;;;;;;68.27;62.47;;;;;;;11.67;100.00;100032.52;1882865;76;26267;-72
2022/02/17 00:22:46;;;;;;;75.30;68.27;;;;;;;11.69;100.00;100021.05;1882760;76;26756;-74
2022/02/17 00:25:16;;;;;;;73.93;66.83;;;;;;;11.61;100.00;100028.18;1882791;76;27481;-72
2022/02/17 00:27:46;;;;;;;68.97;62.83;;;;;;;11.62;100.00;100047.91;1882869;76;26611;-71
2022/02/17 00:30:16;;;;;;;70.33;63.33;;;;;;;11.61;100.00;100037.09;1882774;76;26245;-73
2022/02/17 00:32:47;;;;;;;70.17;63.33;;;;;;;11.57;100.00;100047.20;1882836;76;26677;-73
2022/02/17 00:35:17;;;;;;;76.07;68.73;;;;;;;11.58;100.00;100050.23;1882723;76;26312;-73
2022/02/17 00:37:47;;;;;;;70.17;64.00;;;;;;;11.52;100.00;100052.86;1882773;76;26853;-73
2022/02/17 00:40:17;;;;;;;70.17;63.43;;;;;;;11.55;100.00;100058.62;1882770;76;26786;-72
2022/02/17 00:42:48;;;;;;;67.27;60.40;;;;;;;11.54;100.00;100060.34;1882911;76;26735;-72
2022/02/17 00:45:18;;;;;;;66.60;60.23;;;;;;;11.61;100.00;100059.34;1882916;76;26758;-72
2022/02/17 00:47:49;;;;;;;66.07;58.70;;;;;;;11.56;100.00;100098.39;1882741;76;26706;-72
2022/02/17 00:50:20;;;;;;;65.73;59.50;;;;;;;11.64;100.00;100106.00;1882863;76;26194;-74
2022/02/17 00:52:51;;;;;;;67.20;60.93;;;;;;;11.63;100.00;100097.42;1882742;76;26698;-71
2022/02/17 00:55:22;;;;;;;65.40;59.53;;;;;;;11.63;100.00;100102.42;1882939;74;26205;-72
2022/02/17 00:57:52;;;;;;;67.53;61.03;;;;;;;11.59;100.00;100106.95;1882837;76;26272;-74
2022/02/17 01:00:22;;;;;;;68.50;61.67;;;;;;;11.53;100.00;100117.92;1882791;76;26269;-74
2022/02/17 01:02:52;;;;;;;65.17;58.97;;;;;;;11.54;100.00;100128.48;1882767;75;26262;-72
2022/02/17 01:05:23;;;;;;;63.67;57.20;;;;;;;11.60;100.00;100121.66;1882401;76;26347;-73
2022/02/17 01:07:54;;;;;;;65.33;59.73;;;;;;;11.60;100.00;100136.95;1882146;76;26304;-72
2022/02/17 01:10:24;;;;;;;63.30;57.27;;;;;;;11.64;100.00;100149.11;1882332;76;26630;-75
2022/02/17 01:12:54;;;;;;;61.87;56.10;;;;;;;11.56;100.00;100133.15;1882174;76;26199;-74
2022/02/17 01:15:26;;;;;;;67.07;60.27;;;;;;;11.57;100.00;100132.02;1882254;76;26661;-73
2022/02/17 01:17:56;;;;;;;64.97;58.30;;;;;;;11.57;100.00;100143.98;1882210;76;26237;-72
2022/02/17 01:20:26;;;;;;;63.00;57.37;;;;;;;11.62;100.00;100155.01;1882171;76;26272;-73
2022/02/17 01:22:56;;;;;;;63.30;57.33;;;;;;;11.60;100.00;100173.12;1882197;76;26261;-74
2022/02/17 01:28:41;;;;;;;63.63;57.80;;;;;;;11.58;100.00;100158.71;2005142;71;32863;-72
2022/02/17 01:34:25;;;;;;;59.50;54.03;;;;;;;11.57;100.00;100170.40;2007170;71;32920;-74
2022/02/17 01:40:12;;;;;;;59.57;53.27;;;;;;;11.53;100.00;100197.19;1994210;71;33375;-74
2022/02/17 01:45:56;;;;;;;64.50;58.90;;;;;;;11.49;100.00;100203.10;2003879;71;33242;-72
2022/02/17 01:51:41;;;;;;;63.13;57.63;;;;;;;11.40;100.00;100194.64;2014181;71;33021;-72
2022/02/17 01:57:27;;;;;;;65.30;59.67;;;;;;;11.30;100.00;100208.72;2012921;71;32740;-71
2022/02/17 02:03:13;;;;;;;65.83;59.60;;;;;;;11.24;100.00;100204.97;1994640;71;30869;-74
2022/02/17 02:08:57;;;;;;;64.80;58.40;;;;;;;11.22;100.00;100223.33;2010769;71;32829;-72
2022/02/17 02:14:52;;;;;;;63.10;56.87;;;;;;;11.15;100.00;100245.14;1991186;71;33452;-73
2022/02/17 02:20:44;;;;;;;65.47;57.40;;;;;;;11.14;100.00;100241.27;2016172;71;32795;-72
2022/02/17 02:26:28;;;;;;;59.17;53.07;;;;;;;11.11;100.00;100240.49;2014255;71;32865;-75
2022/02/17 02:32:13;;;;;;;57.30;51.23;;;;;;;11.09;100.00;100243.56;1991151;71;32815;-73
2022/02/17 02:37:57;;;;;;;58.40;52.83;;;;;;;11.05;100.00;100252.25;2003874;71;32858;-72
2022/02/17 02:43:42;;;;;;;63.07;56.10;;;;;;;11.00;100.00;100249.55;1994666;71;33353;-73
2022/02/17 02:49:26;;;;;;;57.53;52.03;;;;;;;11.00;100.00;100263.44;2011428;71;32829;-72
2022/02/17 02:55:10;;;;;;;61.50;55.30;;;;;;;10.98;100.00;100278.22;1999762;71;32895;-75
2022/02/17 03:00:54;;;;;;;61.37;55.10;;;;;;;10.90;100.00;100275.56;2007153;71;32822;-74
2022/02/17 03:06:39;;;;;;;61.00;54.60;;;;;;;10.88;100.00;100291.70;2002064;71;33268;-72
2022/02/17 03:12:23;;;;;;;59.57;53.57;;;;;;;10.95;100.00;100306.62;1996355;71;32786;-72
2022/02/17 03:18:08;;;;;;;66.30;58.27;;;;;;;10.87;100.00;100312.27;2007208;71;30934;-74
2022/02/17 03:23:53;;;;;;;59.93;54.57;;;;;;;10.81;100.00;100320.43;2002135;71;33218;-73
2022/02/17 03:29:37;;;;;;;61.07;55.17;;;;;;;10.79;100.00;100331.00;2014311;71;32799;-72
2022/02/17 03:35:23;;;;;;;62.30;55.97;;;;;;;10.71;100.00;100335.84;2014049;71;32882;-71
2022/02/17 03:41:07;;;;;;;61.20;55.03;;;;;;;10.70;100.00;100359.17;2012657;71;32861;-75
2022/02/17 03:46:51;;;;;;;61.80;56.07;;;;;;;10.68;100.00;100355.89;1994398;71;33313;-74
2022/02/17 03:52:37;;;;;;;63.80;57.63;;;;;;;10.67;100.00;100369.50;2001646;71;33000;-75
2022/02/17 04:04:24;;;;;;;63.53;57.17;;;;;;;10.61;100.00;100383.17;2016084;71;33333;-74
2022/02/17 04:10:11;;;;;;;63.17;57.50;;;;;;;10.63;100.00;100402.33;2005629;71;33240;-72
2022/02/17 04:15:55;;;;;;;62.73;57.37;;;;;;;10.63;100.00;100401.77;2005665;71;32737;-72
2022/02/17 04:21:40;;;;;;;62.20;56.53;;;;;;;10.60;100.00;100424.59;2016025;71;32907;-71
2022/02/17 04:27:25;;;;;;;58.33;52.77;;;;;;;10.61;100.00;100435.14;2008675;71;32809;-72
2022/02/17 04:33:09;;;;;;;59.20;53.47;;;;;;;10.60;100.00;100434.88;2014521;71;32876;-74
2022/02/17 04:38:53;;;;;;;61.17;56.17;;;;;;;10.55;100.00;100433.53;2012651;71;33268;-75
2022/02/17 04:44:37;;;;;;;63.53;58.30;;;;;;;10.37;100.00;100450.39;2007533;71;32740;-74
2022/02/17 04:50:22;;;;;;;64.23;58.30;;;;;;;10.29;100.00;100478.23;2007234;71;33289;-74
2022/02/17 04:56:07;;;;;;;60.60;55.77;;;;;;;10.35;100.00;100483.19;2005591;71;32821;-74
2022/02/17 05:01:51;;;;;;;65.67;59.90;;;;;;;10.36;100.00;100508.41;1948695;71;39578;-72
2022/02/17 05:07:34;;;;;;;65.20;59.53;;;;;;;10.42;100.00;100511.42;2001993;71;33214;-75
2022/02/17 05:13:19;;;;;;;65.63;59.93;;;;;;;10.36;100.00;100533.40;1998451;71;32814;-74
2022/02/17 05:19:04;;;;;;;65.23;59.33;;;;;;;10.35;100.00;100528.44;2014365;71;33355;-71
2022/02/17 05:24:48;;;;;;;66.10;60.50;;;;;;;10.33;100.00;100545.09;2011500;71;32744;-75
2022/02/17 05:30:40;;;;;;;62.37;57.63;;;;;;;10.37;100.00;100553.94;2010644;71;33405;-74
2022/02/17 05:36:23;;;;;;;62.97;58.00;;;;;;;10.39;100.00;100578.09;2007589;71;32740;-72
2022/02/17 05:42:08;;;;;;;65.97;60.10;;;;;;;10.30;100.00;100602.59;2014586;71;32811;-74
2022/02/17 05:47:52;;;;;;;64.23;58.47;;;;;;;10.23;100.00;100620.95;2016271;71;32801;-74
2022/02/17 05:53:37;;;;;;;62.73;57.43;;;;;;;10.29;100.00;100612.86;2012458;71;32926;-75
2022/02/17 05:59:21;;;;;;;61.37;56.27;;;;;;;10.21;100.00;100630.69;1998071;71;32805;-75
2022/02/17 06:05:09;;;;;;;60.77;56.30;;;;;;;10.11;100.00;100633.49;2016113;71;33373;-74
2022/02/17 06:10:53;;;;;;;61.07;55.93;;;;;;;10.08;100.00;100637.69;2003993;71;32782;-72
2022/02/17 06:16:38;;;;;;;61.70;56.93;;;;;;;9.96;100.00;100652.47;2001784;71;33058;-71
2022/02/17 06:22:22;;;;;;;62.43;57.57;;;;;;;9.98;100.00;100649.67;2004195;71;32902;-72
2022/02/17 06:28:07;;;;;;;66.57;61.43;;;;;;;9.90;100.00;100668.30;2013177;71;32736;-72
2022/02/17 06:33:51;;;;;;;63.87;58.60;;;;;;;9.81;100.00;100666.41;1994571;71;32848;-75
2022/02/17 06:39:36;;;;;;;64.37;59.30;;;;;;;9.84;100.00;100667.24;2008859;71;33311;-75
2022/02/17 06:45:21;;;;;;;64.60;59.20;;;;;;;9.78;100.00;100678.08;2012556;71;32875;-74
2022/02/17 06:51:05;;;;;;;62.97;57.70;;;;;;;9.66;100.00;100690.89;2005241;71;33132;-74
2022/02/17 06:56:52;;;;;;;59.97;55.40;;;;;;;9.63;100.00;100683.11;1991121;71;33278;-71
2022/02/17 07:02:36;;;;;;;55.13;51.13;;;;;;;9.61;100.00;100702.00;2005130;71;32800;-74
2022/02/17 07:08:21;;;;;;;56.33;52.20;;;;;;;9.53;100.00;100715.89;1996554;71;32765;-74
2022/02/17 07:14:05;;;;;;;56.00;51.80;;;;;;;9.49;100.00;100726.44;1997983;71;32815;-74
2022/02/17 07:19:51;;;;;;;56.13;51.77;;;;;;;9.51;100.00;100739.45;1994846;71;32865;-75
2022/02/17 07:25:36;;;;;;;56.13;51.83;;;;;;;9.47;100.00;100759.14;2018090;71;32907;-71
2022/02/17 07:31:21;;;;;;;57.37;53.17;;;;;;;9.43;100.00;100766.36;2018147;71;32799;-74
2022/02/17 07:37:06;;;;;;;57.63;53.30;;;;;;;9.31;100.00;100770.81;2012804;71;32823;-75
2022/02/17 07:42:50;;;;;;;61.73;56.47;;;;;;;9.33;100.00;100785.77;1994372;71;32816;-74
2022/02/17 07:48:35;;;;;;;60.67;56.17;;;;;;;9.33;100.00;100792.70;2012489;71;32865;-74
2022/02/17 07:54:19;;;;;;;62.03;57.73;;;;;;;9.31;100.00;100814.33;1999541;71;33355;-71
2022/02/17 08:00:04;;;;;;;61.67;56.93;;;;;;;9.32;100.00;100825.70;2007551;71;33358;-73
2022/02/17 08:05:48;;;;;;;59.00;54.37;;;;;;;9.36;100.00;100842.89;2014412;71;33381;-72
2022/02/17 08:11:33;;;;;;;57.87;53.53;;;;;;;9.37;100.00;100861.16;2014635;71;32802;-75
2022/02/17 08:17:17;;;;;;;59.10;54.70;;;;;;;9.41;100.00;100871.17;2009457;71;32739;-72
2022/02/17 08:23:01;;;;;;;56.47;52.40;;;;;;;9.48;100.00;100885.58;2016142;71;32895;-74
2022/02/17 08:28:46;;;;;;;57.50;53.27;;;;;;;9.59;100.00;100871.97;1998358;71;32912;-74
2022/02/17 08:34:30;;;;;;;58.73;53.97;;;;;;;9.66;100.00;100879.48;2009324;71;32814;-75
2022/02/17 08:40:15;;;;;;;56.40;52.20;;;;;;;9.73;100.00;100870.31;2003902;71;33229;-74
2022/02/17 08:46:01;;;;;;;54.50;50.50;;;;;;;9.78;100.00;100863.92;2016093;71;32980;-72
2022/02/17 08:51:46;;;;;;;53.97;49.73;;;;;;;9.92;100.00;100896.38;2014433;71;33319;-74
2022/02/17 08:57:31;;;;;;;51.07;46.97;;;;;;;10.04;100.00;100915.49;2007286;71;32946;-74
2022/02/17 09:03:15;;;;;;;49.03;45.60;;;;;;;10.13;100.00;100941.57;2014220;71;33325;-72
2022/02/17 09:08:59;;;;;;;44.50;41.43;;;;;;;10.16;100.00;100950.75;1994398;71;33342;-72
2022/02/17 09:14:43;;;;;;;45.43;42.30;;;;;;;10.24;100.00;100961.83;2016215;71;33412;-74
2022/02/17 09:20:29;;;;;;;45.03;42.13;;;;;;;10.35;100.00;100963.49;1984878;71;33319;-70
2022/02/17 09:26:15;;;;;;;41.67;38.80;;;;;;;10.16;100.00;100967.41;2014637;71;33074;-71
2022/02/17 09:31:59;;;;;;;39.70;37.10;;;;;;;10.27;100.00;100988.47;2014535;71;33313;-71
2022/02/17 09:37:44;;;;;;;34.20;31.77;;;;;;;10.10;100.00;101002.36;2005831;71;32950;-75
2022/02/17 09:43:28;;;;;;;40.03;37.30;;;;;;;10.06;100.00;101014.00;2016289;71;33357;-75
2022/02/17 09:49:16;;;;;;;36.77;34.37;;;;;;;10.20;100.00;101039.84;2007606;71;33362;-72
2022/02/17 09:55:00;;;;;;;39.40;36.77;;;;;;;10.36;100.00;101062.31;2005668;71;33301;-72
2022/02/17 10:00:46;;;;;;;37.43;34.83;;;;;;;10.55;100.00;101059.26;2003567;71;32900;-74
2022/02/17 10:06:45;;;;;;;38.37;35.77;;;;;;;10.70;100.00;101063.38;2007050;71;33276;-74
2022/02/17 10:12:49;;;;;;;35.07;32.67;;;;;;;10.68;100.00;101075.91;2003925;71;32985;-77
2022/02/17 10:18:47;;;;;;;39.53;36.63;;;;;;;10.71;100.00;101092.84;2012074;71;32787;-76
2022/02/17 10:24:36;;;;;;;35.20;32.70;;;;;;;10.77;100.00;101104.23;2005409;71;33340;-75
2022/02/17 10:30:24;;;;;;;32.57;30.00;;;;;;;11.06;100.00;101110.00;1994579;71;32769;-71
2022/02/17 10:36:10;;;;;;;26.07;24.43;;;;;;;10.81;100.00;101123.95;2003912;71;32752;-74
2022/02/17 10:41:57;;;;;;;21.50;20.00;;;;;;;10.90;100.00;101124.50;2018018;71;33535;-75
2022/02/17 10:47:44;;;;;;;24.63;22.63;;;;;;;11.09;100.00;101130.83;2008816;71;32880;-75
2022/02/17 10:53:32;;;;;;;17.30;16.20;;;;;;;11.21;100.00;101154.42;2012550;71;33339;-71
2022/02/17 11:05:21;;;;;;;15.50;14.60;;;;;;;11.17;100.00;101155.27;1994636;71;32857;-72
2022/02/17 11:11:05;;;;;;;14.20;13.20;;;;;;;11.14;100.00;101158.63;2010743;71;33388;-72
2022/02/17 11:16:50;;;;;;;13.97;13.10;;;;;;;11.13;100.00;101144.44;2005644;71;32845;-72
2022/02/17 11:22:34;;;;;;;13.90;12.90;;;;;;;11.20;100.00;101156.95;2002194;70;33266;-72
2022/02/17 11:28:21;;;;;;;14.90;13.70;;;;;;;11.21;100.00;101165.55;2018131;71;32935;-76
2022/02/17 11:34:13;;;;;;;15.27;13.87;;;;;;;11.23;100.00;101148.04;1997450;71;33484;-76
2022/02/17 11:40:00;;;;;;;13.90;12.90;;;;;;;11.41;100.00;101159.95;2008844;71;32833;-72
2022/02/17 11:45:47;;;;;;;14.37;13.27;;;;;;;11.48;100.00;101162.42;2014527;70;33306;-75
2022/02/17 11:51:31;;;;;;;13.27;12.43;;;;;;;11.55;100.00;101162.94;2003869;71;32866;-72
2022/02/17 11:57:35;;;;;;;13.27;12.17;;;;;;;11.54;100.00;101147.39;1994416;71;33281;-72
2022/02/17 12:03:59;;;;;;;12.73;11.67;;;;;;;11.65;100.00;101129.52;2007621;70;33194;-75
2022/02/17 12:09:49;;;;;;;13.10;12.00;;;;;;;11.71;100.00;101149.81;1998033;71;33339;-72
2022/02/17 12:15:48;;;;;;;12.33;11.30;;;;;;;11.75;100.00;101148.16;2012667;71;32879;-71
2022/02/17 12:21:35;;;;;;;12.67;11.80;;;;;;;11.69;100.00;101138.12;1996597;71;32758;-72
2022/02/17 12:27:22;;;;;;;12.80;11.90;;;;;;;11.88;100.00;101141.13;2001919;71;32889;-75
2022/02/17 12:33:13;;;;;;;13.53;11.93;;;;;;;12.14;100.00;101118.97;2010897;71;33333;-74
2022/02/17 12:39:06;;;;;;;13.03;11.93;;;;;;;12.20;100.00;101116.41;2000176;71;32773;-71
2022/02/17 12:44:52;;;;;;;13.13;12.23;;;;;;;12.19;100.00;101107.80;2011223;71;32858;-72
2022/02/17 12:50:36;;;;;;;13.40;12.10;;;;;;;12.02;100.00;101094.84;2016163;70;33349;-75
2022/02/17 12:56:26;;;;;;;13.80;12.47;;;;;;;12.17;100.00;101102.52;2003455;71;32897;-75
2022/02/17 13:02:17;;;;;;;12.53;11.47;;;;;;;12.02;100.00;101120.73;2012664;71;32978;-75
2022/02/17 13:08:02;;;;;;;13.10;12.07;;;;;;;11.96;100.00;101105.16;2005632;71;32898;-72
2022/02/17 13:13:52;;;;;;;12.10;11.10;;;;;;;12.16;100.00;101104.19;2002021;71;32859;-75
2022/02/17 13:19:39;;;;;;;12.17;11.23;;;;;;;12.16;100.00;101099.45;1996645;70;32859;-71
2022/02/17 13:25:24;;;;;;;13.40;11.30;;;;;;;12.22;100.00;101094.13;2004155;71;33236;-72
2022/02/17 13:31:20;;;;;;;12.93;11.63;;;;;;;12.23;100.00;101081.03;2005264;71;33453;-75
2022/02/17 13:37:08;;;;;;;11.90;11.00;;;;;;;12.19;100.00;101069.62;2003941;71;33352;-72
2022/02/17 13:43:00;;;;;;;14.47;11.60;;;;;;;12.45;100.00;101070.23;2014405;71;32816;-71
2022/02/17 13:48:45;;;;;;;11.63;10.63;;;;;;;12.54;100.00;101074.05;2003587;71;32820;-71
2022/02/17 13:54:53;;;;;;;11.33;10.33;;;;;;;12.33;100.00;101081.77;2009003;71;33295;-74
2022/02/17 14:00:43;;;;;;;10.97;10.00;;;;;;;12.27;100.00;101083.51;2000117;71;32920;-75
2022/02/17 14:06:35;;;;;;;11.70;10.57;;;;;;;12.26;100.00;101069.30;1998316;71;32805;-74
2022/02/17 14:12:20;;;;;;;12.53;11.43;;;;;;;12.26;100.00;101073.48;1991165;71;32755;-75
2022/02/17 14:18:04;;;;;;;11.63;10.67;;;;;;;12.23;100.00;101092.17;1994524;71;32984;-75
2022/02/17 14:23:49;;;;;;;14.80;13.70;;;;;;;11.68;100.00;101100.30;2003848;71;32958;-75
2022/02/17 14:29:33;;;;;;;23.23;21.60;;;;;;;11.25;100.00;101084.62;2005704;71;32837;-75
2022/02/17 14:35:18;;;;;;;24.77;22.97;;;;;;;11.21;100.00;101086.89;2002208;70;32766;-74
2022/02/17 14:41:03;;;;;;;24.57;22.60;;;;;;;11.28;100.00;101098.53;1996466;71;32777;-74
2022/02/17 14:46:48;;;;;;;22.57;20.90;;;;;;;11.32;100.00;101084.33;1999812;71;33426;-75
2022/02/17 14:52:32;;;;;;;21.83;20.33;;;;;;;11.35;100.00;101067.90;2005299;71;32823;-75
2022/02/17 14:58:17;;;;;;;21.07;19.63;;;;;;;11.52;100.00;101061.97;2004039;71;32924;-75
2022/02/17 15:04:02;;;;;;;20.80;18.97;;;;;;;11.44;100.00;101048.67;1996558;71;32812;-71
2022/02/17 15:09:46;;;;;;;21.30;19.93;;;;;;;11.67;100.00;101066.63;2012614;70;32896;-75
2022/02/17 15:15:31;;;;;;;17.67;16.57;;;;;;;11.67;100.00;101092.52;2003601;71;33384;-75
2022/02/17 15:21:16;;;;;;;19.13;17.97;;;;;;;11.58;100.00;101090.61;2015027;71;32964;-77
2022/02/17 15:27:01;;;;;;;18.53;17.23;;;;;;;11.52;100.00;101081.45;2009636;70;32923;-76
2022/02/17 15:32:47;;;;;;;17.40;16.23;;;;;;;11.60;100.00;101085.58;2005798;71;32842;-75
2022/02/17 15:38:32;;;;;;;16.10;15.20;;;;;;;11.72;100.00;101084.14;2012998;71;32869;-71
2022/02/17 15:44:17;;;;;;;15.60;14.63;;;;;;;11.54;100.00;101077.84;2002033;71;33354;-75
2022/02/17 15:50:01;;;;;;;13.73;12.80;;;;;;;11.69;100.00;101059.66;2010781;71;32838;-75
2022/02/17 15:55:47;;;;;;;14.13;13.33;;;;;;;11.69;100.00;101058.81;2009206;71;32793;-72
2022/02/17 16:01:33;;;;;;;14.27;13.43;;;;;;;11.63;100.00;101061.38;2010675;71;32835;-72
2022/02/17 16:07:18;;;;;;;14.37;13.37;;;;;;;11.72;100.00;101063.27;1994972;71;32864;-72
2022/02/17 16:13:03;;;;;;;15.43;13.93;;;;;;;11.53;100.00;101061.42;2008946;71;32827;-75
2022/02/17 16:18:48;;;;;;;13.80;12.93;;;;;;;11.47;100.00;101056.43;1993556;71;32864;-72
2022/02/17 16:24:35;;;;;;;14.67;13.53;;;;;;;11.47;100.00;101058.41;1996093;71;33371;-73
2022/02/17 16:30:20;;;;;;;14.23;13.03;;;;;;;11.53;100.00;101071.99;2009427;71;32893;-72
2022/02/17 16:36:07;;;;;;;13.17;12.37;;;;;;;11.45;100.00;101069.81;2003337;71;32833;-72
2022/02/17 16:41:55;;;;;;;13.90;12.90;;;;;;;11.29;100.00;101080.73;2014947;71;32848;-77
2022/02/17 16:47:47;;;;;;;15.67;13.17;;;;;;;11.25;100.00;101094.35;2008812;71;32810;-74
2022/02/17 16:53:26;;;;;;;16.10;13.10;;;;;;;11.31;100.00;101107.69;2009389;71;34073;-72
2022/02/17 16:59:11;;;;;;;14.13;12.70;;;;;;;11.26;100.00;101103.53;2003118;71;33325;-75
2022/02/17 17:04:56;;;;;;;14.33;12.93;;;;;;;11.21;100.00;101106.36;2012710;71;33385;-75
2022/02/17 17:10:46;;;;;;;15.40;13.80;;;;;;;11.23;100.00;101111.05;2017852;71;32908;-71
2022/02/17 17:16:27;;;;;;;16.10;14.57;;;;;;;11.02;100.00;101113.06;2010604;71;32845;-72
2022/02/17 17:22:12;;;;;;;15.30;14.00;;;;;;;10.95;100.00;101106.98;1991027;70;32880;-75
2022/02/17 17:27:57;;;;;;;19.83;18.10;;;;;;;10.87;100.00;101111.70;2001334;71;32859;-72
2022/02/17 17:33:34;;;;;;;18.90;17.10;;;;;;;10.83;100.00;101119.77;1989865;70;32777;-71
2022/02/17 17:36:06;;;;;;;17.17;15.57;;;;;;;10.71;100.00;101123.40;1918897;74;26229;-73
2022/02/17 17:38:40;;;;;;;19.43;17.40;;;;;;;10.66;100.00;101128.95;1879334;76;26205;-73
2022/02/17 17:41:09;;;;;;;19.30;17.47;;;;;;;10.59;100.00;101133.97;1879304;76;26737;-70
2022/02/17 17:43:40;;;;;;;19.60;17.80;;;;;;;10.57;100.00;101140.34;1952203;73;26776;-70
2022/02/17 17:46:10;;;;;;;19.10;17.47;;;;;;;10.60;100.00;101142.59;1952241;73;26310;-73
2022/02/17 17:48:40;;;;;;;20.97;18.90;;;;;;;10.58;100.00;101148.13;1952243;73;26237;-74
2022/02/17 17:51:13;;;;;;;20.73;18.73;;;;;;;10.58;100.00;101153.69;1952157;73;26688;-73
2022/02/17 17:53:44;;;;;;;21.10;18.90;;;;;;;10.53;100.00;101162.84;1952190;73;26605;-74
2022/02/17 17:56:14;;;;;;;22.53;20.30;;;;;;;10.53;100.00;101167.02;1952062;73;26748;-71
2022/02/17 17:58:44;;;;;;;20.87;18.90;;;;;;;10.46;100.00;101179.80;1952045;73;26182;-71
2022/02/17 18:01:15;;;;;;;22.47;20.57;;;;;;;10.52;100.00;101172.87;1952101;73;26281;-70
2022/02/17 18:03:45;;;;;;;24.37;22.10;;;;;;;10.47;100.00;101172.30;1950929;73;26381;-71
2022/02/17 18:06:15;;;;;;;22.47;20.47;;;;;;;10.49;100.00;101186.73;1950623;73;26262;-74
2022/02/17 18:08:46;;;;;;;22.90;21.00;;;;;;;10.52;100.00;101177.87;1950581;73;26185;-71
2022/02/17 18:11:17;;;;;;;22.60;20.20;;;;;;;10.49;100.00;101177.01;1950546;73;26179;-74
2022/02/17 18:17:01;;;;;;;23.83;21.73;;;;;;;10.47;100.00;101181.47;2000030;71;33316;-72
2022/02/17 18:22:46;;;;;;;26.47;23.77;;;;;;;10.43;100.00;101181.75;1990798;71;32837;-75
2022/02/17 18:28:30;;;;;;;25.97;23.60;;;;;;;10.37;100.00;101182.84;2014630;71;32987;-76
2022/02/17 18:34:15;;;;;;;26.50;23.97;;;;;;;10.39;100.00;101169.53;2005639;71;32890;-75
2022/02/17 18:39:59;;;;;;;32.53;27.53;;;;;;;10.33;100.00;101170.62;1994510;71;32816;-76
2022/02/17 18:45:44;;;;;;;30.43;27.33;;;;;;;10.28;100.00;101158.11;2014065;71;33455;-72
2022/02/17 18:51:28;;;;;;;31.07;28.10;;;;;;;10.28;100.00;101160.89;1999468;71;30971;-72
2022/02/17 18:57:12;;;;;;;32.90;29.53;;;;;;;10.36;100.00;101147.01;2001551;71;33258;-74
2022/02/17 19:02:57;;;;;;;34.10;31.10;;;;;;;10.23;100.00;101146.16;1998059;71;32824;-76
2022/02/17 19:08:42;;;;;;;32.13;29.33;;;;;;;10.29;100.00;101132.58;2005526;71;33216;-71
2022/02/17 19:14:26;;;;;;;35.10;32.03;;;;;;;10.25;100.00;101132.30;2001441;71;32894;-75
2022/02/17 19:20:12;;;;;;;37.00;33.77;;;;;;;10.20;100.00;101131.45;2003758;71;32797;-75
2022/02/17 19:25:57;;;;;;;37.60;34.50;;;;;;;10.20;100.00;101120.34;2012513;71;32902;-72
2022/02/17 19:31:41;;;;;;;39.33;35.87;;;;;;;10.18;100.00;101117.03;1994029;71;33290;-75
2022/02/17 19:37:26;;;;;;;40.13;37.03;;;;;;;10.19;100.00;101110.34;1994746;71;33367;-74
2022/02/17 19:43:10;;;;;;;43.80;40.03;;;;;;;10.16;100.00;101115.91;2005206;71;30896;-75
2022/02/17 19:48:54;;;;;;;46.80;43.30;;;;;;;10.16;100.00;101108.13;2016134;71;32919;-72
2022/02/17 19:54:39;;;;;;;50.30;46.30;;;;;;;10.15;100.00;101109.20;2017875;71;33367;-72
2022/02/17 20:00:23;;;;;;;52.80;49.00;;;;;;;10.04;100.00;101097.27;2003281;71;33303;-71
2022/02/17 20:06:08;;;;;;;52.33;48.63;;;;;;;9.98;100.00;101096.42;2005060;71;32952;-75
2022/02/17 20:11:52;;;;;;;57.20;52.63;;;;;;;10.04;100.00;101098.66;1990739;71;32805;-72
2022/02/17 20:17:36;;;;;;;54.30;50.17;;;;;;;10.06;100.00;101099.20;2010889;71;32944;-71
2022/02/17 20:23:23;;;;;;;57.20;52.83;;;;;;;10.03;100.00;101096.44;2009075;71;32874;-74
2022/02/17 20:29:11;;;;;;;61.13;56.47;;;;;;;10.04;100.00;101083.39;1996340;71;32847;-74
2022/02/17 20:34:54;;;;;;;59.57;55.03;;;;;;;10.08;100.00;101065.08;2012614;71;33270;-71
2022/02/17 20:40:40;;;;;;;59.40;55.40;;;;;;;10.08;100.00;101061.47;2015934;71;33317;-72
2022/02/17 20:52:26;;;;;;;59.87;55.33;;;;;;;10.02;100.00;101051.74;2014276;71;33321;-72
2022/02/17 20:58:11;;;;;;;57.13;52.70;;;;;;;10.03;100.00;101039.54;2014362;71;33384;-71
2022/02/17 21:04:04;;;;;;;56.50;52.63;;;;;;;10.04;100.00;101033.44;2010654;71;32815;-72
2022/02/17 21:09:50;;;;;;;56.43;52.43;;;;;;;9.99;100.00;101016.23;2017778;71;32950;-72
2022/02/17 21:15:35;;;;;;;56.07;51.93;;;;;;;10.03;100.00;101000.69;2015967;70;33319;-75
2022/02/17 21:21:20;;;;;;;62.73;58.03;;;;;;;9.88;100.00;100996.51;1999534;71;32966;-75
2022/02/17 21:27:04;;;;;;;66.70;61.43;;;;;;;9.73;100.00;101033.96;2011142;71;32843;-72
2022/02/17 21:32:49;;;;;;;68.03;62.87;;;;;;;9.77;100.00;101048.11;1994664;71;30915;-75
2022/02/17 21:38:34;;;;;;;67.43;62.43;;;;;;;9.83;100.00;101037.31;2005647;71;32967;-72
2022/02/17 21:44:19;;;;;;;66.20;60.90;;;;;;;9.66;100.00;101036.73;2007352;71;33273;-72
2022/02/17 21:50:04;;;;;;;65.07;59.73;;;;;;;9.71;100.00;101038.97;2006918;71;32895;-74
2022/02/17 21:55:50;;;;;;;65.97;61.03;;;;;;;9.77;100.00;101024.53;1998174;71;32826;-71
2022/02/17 22:01:37;;;;;;;67.60;62.13;;;;;;;9.73;100.00;101015.09;2003624;71;32905;-72
2022/02/17 22:07:21;;;;;;;65.50;60.63;;;;;;;9.78;100.00;101020.10;2014240;71;32809;-74
2022/02/17 22:13:06;;;;;;;67.10;61.97;;;;;;;9.63;100.00;100990.95;2011021;70;32877;-74
2022/02/17 22:18:50;;;;;;;64.37;59.57;;;;;;;9.58;100.00;100995.12;2014257;71;33394;-72
2022/02/17 22:24:34;;;;;;;67.07;62.50;;;;;;;9.48;100.00;100988.16;1999961;71;33043;-75
2022/02/17 22:30:20;;;;;;;63.77;59.10;;;;;;;9.48;100.00;100979.30;2016026;71;33257;-75
2022/02/17 22:36:05;;;;;;;65.33;60.43;;;;;;;9.66;100.00;100987.64;2012485;71;32960;-72
2022/02/17 22:41:50;;;;;;;65.40;60.47;;;;;;;9.56;100.00;100951.57;2003283;71;33360;-75
2022/02/17 22:47:34;;;;;;;64.03;59.27;;;;;;;9.66;100.00;100954.91;2005229;71;33492;-74
2022/02/17 22:53:19;;;;;;;66.30;61.07;;;;;;;9.65;100.00;100927.73;1990799;71;32805;-75
2022/02/17 22:59:03;;;;;;;67.67;62.87;;;;;;;9.52;100.00;100878.37;1999339;71;33386;-74
2022/02/17 23:04:51;;;;;;;66.13;60.73;;;;;;;9.47;100.00;100856.17;1964150;72;33059;-75
2022/02/17 23:10:49;;;;;;;69.80;63.93;;;;;;;9.46;100.00;100858.12;2010991;71;33196;-72
2022/02/17 23:22:36;;;;;;;68.90;63.43;;;;;;;9.45;100.00;100849.55;2011208;71;32823;-75
2022/02/17 23:28:21;;;;;;;68.03;62.37;;;;;;;9.38;100.00;100807.39;1994216;71;32903;-71
2022/02/17 23:34:07;;;;;;;69.43;63.30;;;;;;;9.41;100.00;100779.69;2015992;71;32954;-75
2022/02/17 23:39:52;;;;;;;72.33;67.10;;;;;;;9.41;100.00;100756.13;2000087;71;32759;-71